map of FLR home
FLR - Airport
Location
City:  Florence, Tuscany, Italy
Near (Alt.):Firenze
Name:Peretola
Old (Alt.):Amerigo Vespucci
ICAO:LIRQ
IATA:FLR

Details
Type:Airport (Aerodrome, Airfield)
Use:Public/Civil
Latitude:4348'36"N (43.809953)
Longitude:1112'18"E (11.205100)
Datum:WGS 1984
Elevation:142 ft (43 m)
Variation:2.87E (WMM2015 magnetic declination)
0.11 annual change
Runways:1
Longest:5425 × 98 ft (1654 × 30 m), paved

Time
Time Zone:UTC+1 (DST+2)
Local Time:

Weather
METAR:LIRQ 120950Z 09005KT 9999 FEW020 BKN070 11/10 Q1011
TAF:LIRQ 120500Z 1206/1306 24007KT 9999 SCT030
TEMPO 1206/1215 4000 RA
TEMPO 1215/1224 SHRA

Related Locations
Nearby:
Farthest:CHT: 12058 mi / 19405 km
Waitangi [Tuuta], CIT, NZ

Find:

   beyond  
but within

Other Information
Maps:
NOTAMs:
Links:
Sources:

  
flag of Italy
flag of Tuscany
flag of Florence
  

Sectional Chart

Flight Planning
at skyvector.com

Satellite Image

Google Maps Satellite view

 

Copyright © 2004-2017 Karl L. Swartz. All rights reserved.
The Great Circle Mapper name and logo are trademarks of the Great Circle Mapper.
All other trademarks mentioned herein belong to their respective owners.
Please see credits for attibutions and further copyright information.

  Follow gcmap on Facebook Follow gcmap on Twitter Follow gcmap on Google+ GCmap on LinkedIn

hCard Microformat

Geo Microformat